Time;durP1;ratioP1;P1;durP2;ratioP2;P2;SDS_P1;SDS_P2;PMS_P1;PMS_P2;Temp;Humidity;BMP_temperature;BMP_pressure;BME280_temperature;BME280_humidity;BME280_pressure;Samples;Min_cycle;Max_cycle;Signal;HPM_P1;HPM_P2
2022/04/03 00:01:35;;;;;;;4.47;2.10;;;3.30;99.90;;;;;;5047193;28;20214;-83
2022/04/03 00:04:02;;;;;;;3.57;2.40;;;3.30;99.90;;;;;;5045062;28;21065;-84
2022/04/03 00:06:28;;;;;;;5.33;2.30;;;3.30;99.90;;;;;;5029356;28;20284;-84
2022/04/03 00:08:56;;;;;;;4.17;2.33;;;3.30;99.90;;;;;;5047880;28;20219;-85
2022/04/03 00:11:23;;;;;;;5.03;2.63;;;3.30;99.90;;;;;;5030528;28;20237;-84
2022/04/03 00:13:50;;;;;;;3.57;2.50;;;3.30;99.90;;;;;;5029393;28;20254;-83
2022/04/03 00:16:18;;;;;;;5.70;2.43;;;3.20;99.90;;;;;;5047800;28;20217;-83
2022/04/03 00:18:48;;;;;;;4.33;2.37;;;3.30;99.90;;;;;;5046666;28;20197;-83
2022/04/03 00:21:16;;;;;;;4.93;2.13;;;3.20;99.90;;;;;;5028874;28;20236;-85
2022/04/03 00:23:43;;;;;;;5.77;2.60;;;3.20;99.90;;;;;;5047504;28;20219;-85
2022/04/03 00:26:10;;;;;;;3.10;2.20;;;3.30;99.90;;;;;;5027941;28;20206;-87
2022/04/03 00:28:37;;;;;;;5.93;2.50;;;3.30;99.90;;;;;;5026596;28;20284;-84
2022/04/03 00:31:04;;;;;;;2.60;2.10;;;3.20;99.90;;;;;;5022244;28;20211;-84
2022/04/03 00:33:31;;;;;;;3.77;2.17;;;3.10;99.90;;;;;;5044871;28;20710;-84
2022/04/03 00:35:58;;;;;;;3.67;2.30;;;3.00;99.90;;;;;;5020060;28;20297;-84
2022/04/03 00:38:25;;;;;;;4.90;2.07;;;3.00;99.90;;;;;;5022712;28;20638;-84
2022/04/03 00:40:51;;;;;;;4.97;2.00;;;3.20;99.90;;;;;;5025248;28;20603;-83
2022/04/03 00:43:19;;;;;;;3.70;2.20;;;3.10;99.90;;;;;;5022711;28;22701;-83
2022/04/03 00:45:48;;;;;;;3.33;2.20;;;3.20;99.90;;;;;;5025980;28;21752;-83
2022/04/03 00:48:15;;;;;;;5.60;2.17;;;3.00;99.90;;;;;;5023285;28;20850;-85
2022/04/03 00:50:44;;;;;;;3.90;2.30;;;3.10;99.90;;;;;;5022940;28;20233;-85
2022/04/03 00:53:11;;;;;;;3.50;1.90;;;3.10;99.90;;;;;;5025227;28;20257;-83
2022/04/03 00:55:42;;;;;;;4.33;1.90;;;3.20;99.90;;;;;;5025286;28;20224;-83
2022/04/03 00:58:10;;;;;;;3.67;2.17;;;3.10;99.90;;;;;;5023930;28;20222;-82
2022/04/03 01:00:38;;;;;;;4.43;2.40;;;3.20;99.90;;;;;;5038973;28;20247;-83
2022/04/03 01:03:06;;;;;;;4.37;2.00;;;3.20;99.90;;;;;;5005908;28;20211;-83
2022/04/03 01:05:33;;;;;;;4.97;2.00;;;3.10;99.90;;;;;;5005720;28;20996;-86
2022/04/03 01:08:01;;;;;;;3.17;1.80;;;3.00;99.90;;;;;;5007005;28;20219;-83
2022/04/03 01:10:28;;;;;;;2.40;1.70;;;3.00;99.90;;;;;;5024061;28;20235;-84
2022/04/03 01:12:54;;;;;;;3.83;1.67;;;2.90;99.90;;;;;;5024437;28;20312;-84
2022/04/03 01:15:23;;;;;;;5.67;2.40;;;3.00;99.90;;;;;;5029366;28;20539;-84
2022/04/03 01:17:49;;;;;;;4.60;2.20;;;3.10;99.90;;;;;;5010472;28;20238;-84
2022/04/03 01:20:18;;;;;;;2.70;1.90;;;3.10;99.90;;;;;;4997080;28;20285;-84
2022/04/03 01:22:46;;;;;;;3.17;1.80;;;2.90;99.90;;;;;;5026384;28;20214;-84
2022/04/03 01:25:14;;;;;;;2.67;1.70;;;3.00;99.90;;;;;;5011915;28;20301;-84
2022/04/03 01:27:42;;;;;;;3.10;1.80;;;3.00;99.90;;;;;;5024753;28;20211;-86
2022/04/03 01:30:12;;;;;;;5.93;2.03;;;2.90;99.90;;;;;;5009632;28;20687;-84
2022/04/03 01:32:40;;;;;;;2.60;1.90;;;3.00;99.90;;;;;;5040629;28;20358;-84
2022/04/03 01:35:07;;;;;;;4.70;2.10;;;3.10;99.90;;;;;;5025928;28;20221;-83
2022/04/03 01:37:34;;;;;;;4.70;2.67;;;3.10;99.90;;;;;;5025862;28;20549;-84
2022/04/03 01:40:02;;;;;;;3.67;2.37;;;2.80;99.90;;;;;;5011135;28;20299;-84
2022/04/03 01:42:30;;;;;;;3.47;2.50;;;2.30;99.90;;;;;;5045959;28;20221;-85
2022/04/03 01:44:57;;;;;;;4.37;2.63;;;2.10;99.90;;;;;;5013009;28;20199;-84
2022/04/03 01:47:24;;;;;;;5.43;2.37;;;2.00;99.90;;;;;;5022804;28;21876;-86
2022/04/03 01:49:51;;;;;;;3.60;2.10;;;2.00;99.90;;;;;;5026996;28;20562;-84
2022/04/03 01:52:18;;;;;;;5.77;2.30;;;2.10;99.90;;;;;;5032193;28;20585;-86
2022/04/03 01:54:45;;;;;;;4.30;2.37;;;2.20;99.90;;;;;;5047116;28;20215;-84
2022/04/03 01:57:11;;;;;;;2.30;1.97;;;2.10;99.90;;;;;;5032020;28;20338;-86
2022/04/03 01:59:38;;;;;;;5.03;2.53;;;2.30;99.90;;;;;;5031936;28;20240;-84
2022/04/03 02:02:05;;;;;;;4.03;2.23;;;2.40;99.90;;;;;;5032234;28;20282;-84
2022/04/03 02:04:32;;;;;;;3.60;2.30;;;2.40;99.90;;;;;;5031558;28;20207;-84
2022/04/03 02:06:59;;;;;;;8.33;2.67;;;2.40;99.90;;;;;;5031664;28;20218;-84
2022/04/03 02:09:26;;;;;;;4.10;2.70;;;2.20;99.90;;;;;;5031568;28;20218;-85
2022/04/03 02:11:54;;;;;;;3.50;2.20;;;2.10;99.90;;;;;;5030220;28;20275;-84
2022/04/03 02:14:24;;;;;;;4.17;2.40;;;2.10;99.90;;;;;;5029521;28;20325;-83
2022/04/03 02:16:57;;;;;;;5.60;2.33;;;2.20;99.90;;;;;;5029543;28;20217;-85
2022/04/03 02:19:24;;;;;;;5.53;3.40;;;2.20;99.90;;;;;;5025475;28;20267;-87
2022/04/03 02:21:51;;;;;;;5.40;2.60;;;2.20;99.90;;;;;;5028816;28;20289;-85
2022/04/03 02:24:18;;;;;;;4.23;2.60;;;2.30;99.90;;;;;;5031722;28;20215;-84
2022/04/03 02:26:46;;;;;;;4.27;1.90;;;2.20;99.90;;;;;;5048050;28;20206;-83
2022/04/03 02:29:13;;;;;;;5.37;2.60;;;2.20;99.90;;;;;;5033178;28;20279;-83
2022/04/03 02:31:39;;;;;;;6.20;2.63;;;2.20;99.90;;;;;;5029857;28;20201;-84
2022/04/03 02:34:07;;;;;;;5.00;2.47;;;2.10;99.90;;;;;;5036338;28;20250;-84
2022/04/03 02:36:34;;;;;;;3.00;2.20;;;2.10;99.90;;;;;;5026149;28;20253;-83
2022/04/03 02:39:01;;;;;;;4.63;2.23;;;2.30;99.90;;;;;;5030425;28;20312;-85
2022/04/03 02:41:28;;;;;;;2.97;1.97;;;2.30;99.90;;;;;;5028752;28;20842;-83
2022/04/03 02:43:55;;;;;;;4.20;2.50;;;2.30;99.90;;;;;;5032126;28;20209;-83
2022/04/03 02:46:22;;;;;;;3.10;2.43;;;2.30;99.90;;;;;;5027708;28;20264;-83
2022/04/03 02:48:49;;;;;;;5.13;2.63;;;2.30;99.90;;;;;;5033250;28;20209;-83
2022/04/03 02:51:16;;;;;;;7.17;2.43;;;2.50;99.90;;;;;;5049184;28;20280;-82
2022/04/03 02:53:43;;;;;;;2.80;2.20;;;2.50;99.90;;;;;;5032025;28;20759;-84
2022/04/03 02:56:09;;;;;;;3.13;2.13;;;2.40;99.90;;;;;;5030470;28;20228;-82
2022/04/03 02:58:36;;;;;;;5.23;2.30;;;2.20;99.90;;;;;;5031563;28;20229;-84
2022/04/03 03:01:03;;;;;;;4.30;2.57;;;2.30;99.90;;;;;;5046277;28;20339;-84
2022/04/03 03:03:30;;;;;;;3.10;2.50;;;2.10;99.90;;;;;;5027081;28;20212;-85
2022/04/03 03:05:57;;;;;;;4.90;2.50;;;2.10;99.90;;;;;;5029007;28;20265;-84
2022/04/03 03:08:24;;;;;;;3.17;2.03;;;2.10;99.90;;;;;;5034338;28;20259;-83
2022/04/03 03:10:51;;;;;;;4.70;2.90;;;2.20;99.90;;;;;;5030977;28;20214;-83
2022/04/03 03:13:18;;;;;;;3.17;2.37;;;2.10;99.90;;;;;;5033050;28;20223;-83
2022/04/03 03:15:45;;;;;;;3.30;2.33;;;2.10;99.90;;;;;;5035853;28;20210;-81
2022/04/03 03:18:12;;;;;;;3.63;2.30;;;2.20;99.90;;;;;;5033775;28;20238;-82
2022/04/03 03:20:39;;;;;;;3.30;2.50;;;2.10;99.90;;;;;;5028440;28;20263;-83
2022/04/03 03:23:06;;;;;;;3.37;2.13;;;2.20;99.90;;;;;;5032903;28;20271;-81
2022/04/03 03:25:33;;;;;;;6.23;2.97;;;2.10;1.00;;;;;;5031780;28;20270;-81
2022/04/03 03:28:00;;;;;;;4.53;2.60;;;2.20;99.90;;;;;;5030310;28;20663;-82
2022/04/03 03:30:27;;;;;;;3.23;2.33;;;2.10;99.90;;;;;;5029181;28;20200;-82
2022/04/03 03:32:54;;;;;;;4.00;2.80;;;1.90;99.90;;;;;;5043028;28;20248;-83
2022/04/03 03:35:20;;;;;;;3.53;2.63;;;1.90;99.90;;;;;;5034725;28;20248;-82
2022/04/03 03:37:47;;;;;;;3.43;2.80;;;1.80;99.90;;;;;;5028990;28;20997;-84
2022/04/03 03:40:14;;;;;;;3.80;2.47;;;1.80;99.90;;;;;;5042966;28;20234;-83
2022/04/03 03:42:42;;;;;;;4.87;2.57;;;1.80;99.90;;;;;;5028235;28;20543;-84
2022/04/03 03:45:14;;;;;;;4.07;2.40;;;1.80;99.90;;;;;;5048632;28;20261;-81
2022/04/03 03:47:45;;;;;;;3.37;3.07;;;1.80;99.90;;;;;;5025192;28;20252;-82
2022/04/03 03:50:13;;;;;;;5.77;2.90;;;1.80;99.90;;;;;;5027625;28;20260;-83
2022/04/03 03:52:41;;;;;;;5.13;2.67;;;1.70;99.90;;;;;;5048482;28;20331;-81
2022/04/03 03:55:09;;;;;;;3.87;2.67;;;1.30;99.90;;;;;;5029113;28;20265;-85
2022/04/03 03:57:38;;;;;;;3.47;2.80;;;1.30;99.90;;;;;;5028375;28;20212;-83
2022/04/03 04:00:09;;;;;;;3.87;2.63;;;1.20;99.90;;;;;;5044480;28;20241;-84
2022/04/03 04:02:37;;;;;;;3.97;2.90;;;1.20;99.90;;;;;;5025479;28;20199;-84
2022/04/03 04:05:05;;;;;;;5.90;2.83;;;1.00;99.90;;;;;;5027990;28;20354;-84
2022/04/03 04:07:43;;;;;;;4.07;2.97;;;1.10;99.90;;;;;;5026092;28;20307;-83
2022/04/03 04:10:15;;;;;;;3.43;2.53;;;1.00;99.90;;;;;;5026253;28;20231;-85
2022/04/03 04:12:43;;;;;;;7.07;2.93;;;1.20;99.90;;;;;;5043739;28;21005;-85
2022/04/03 04:15:12;;;;;;;3.73;2.80;;;1.30;99.90;;;;;;5025274;28;20198;-85
2022/04/03 04:17:44;;;;;;;5.67;2.63;;;1.20;99.90;;;;;;5025015;28;20272;-83
2022/04/03 04:20:16;;;;;;;7.37;2.87;;;1.10;99.90;;;;;;5042362;28;22399;-83
2022/04/03 04:22:45;;;;;;;3.90;2.80;;;1.10;99.90;;;;;;5024514;28;20237;-85
2022/04/03 04:25:14;;;;;;;4.90;2.97;;;1.10;99.90;;;;;;5028769;28;20214;-85
2022/04/03 04:27:41;;;;;;;5.70;2.87;;;0.80;99.90;;;;;;5023289;28;20250;-83
2022/04/03 04:30:09;;;;;;;4.47;3.37;;;0.70;99.90;;;;;;5028358;28;20206;-83
2022/04/03 04:32:36;;;;;;;4.80;3.30;;;0.50;99.90;;;;;;5027510;28;20666;-85
2022/04/03 04:35:04;;;;;;;3.73;2.70;;;0.30;99.90;;;;;;5029594;28;20649;-85
2022/04/03 04:37:32;;;;;;;8.00;2.80;;;0.30;99.90;;;;;;5029108;28;20209;-84
2022/04/03 04:39:59;;;;;;;4.80;2.93;;;0.30;99.90;;;;;;5014124;28;20214;-83
2022/04/03 04:42:26;;;;;;;6.30;2.80;;;0.40;99.90;;;;;;5026800;28;20198;-84
2022/04/03 04:44:53;;;;;;;5.90;3.37;;;0.30;99.90;;;;;;5026132;28;20375;-83
2022/04/03 04:47:20;;;;;;;6.47;3.23;;;0.10;99.90;;;;;;5024974;28;20205;-86
2022/04/03 04:49:47;;;;;;;4.60;2.90;;;0.30;99.90;;;;;;5029505;28;20341;-85
2022/04/03 04:52:14;;;;;;;5.13;3.27;;;0.40;99.90;;;;;;5030456;28;20301;-83
2022/04/03 04:54:41;;;;;;;4.13;3.10;;;0.40;99.90;;;;;;5033397;28;20657;-85
2022/04/03 04:57:07;;;;;;;5.67;2.67;;;0.30;99.90;;;;;;5032224;28;20640;-84
2022/04/03 04:59:34;;;;;;;6.90;3.20;;;0.10;99.90;;;;;;5031076;28;20299;-85
2022/04/03 05:02:01;;;;;;;6.10;3.47;;;0.50;99.90;;;;;;5032183;28;20200;-84
2022/04/03 05:04:28;;;;;;;3.93;2.60;;;0.70;99.90;;;;;;5029802;28;20208;-85
2022/04/03 05:06:55;;;;;;;5.80;3.13;;;0.80;99.90;;;;;;5032014;28;20545;-83
2022/04/03 05:09:22;;;;;;;5.00;3.13;;;0.90;99.90;;;;;;5034515;28;20275;-84
2022/04/03 05:11:50;;;;;;;3.50;2.73;;;1.10;99.90;;;;;;5031075;28;20216;-82
2022/04/03 05:14:17;;;;;;;6.03;2.70;;;1.10;99.90;;;;;;5032948;28;20248;-84
2022/04/03 05:16:46;;;;;;;4.23;2.73;;;1.20;99.90;;;;;;5033861;28;20216;-84
2022/04/03 05:19:13;;;;;;;4.50;3.20;;;1.10;99.90;;;;;;5030269;28;20251;-83
2022/04/03 05:21:41;;;;;;;6.80;3.10;;;1.10;99.90;;;;;;5032962;28;20598;-83
2022/04/03 05:24:08;;;;;;;4.30;3.00;;;1.20;99.90;;;;;;5052436;28;20648;-84
2022/04/03 05:26:36;;;;;;;4.07;2.83;;;1.20;99.90;;;;;;5032781;28;20203;-82
2022/04/03 05:29:08;;;;;;;3.37;2.63;;;1.00;99.90;;;;;;5035092;28;20532;-81
2022/04/03 05:31:36;;;;;;;6.30;2.80;;;0.90;99.90;;;;;;5032733;28;20200;-84
2022/04/03 05:34:03;;;;;;;6.13;2.80;;;0.70;99.90;;;;;;5050284;28;20231;-82
2022/04/03 05:36:30;;;;;;;3.93;2.93;;;0.80;99.90;;;;;;5033631;28;20642;-82
2022/04/03 05:38:57;;;;;;;4.53;4.13;;;0.50;99.90;;;;;;5031729;28;20299;-84
2022/04/03 05:41:24;;;;;;;6.87;2.83;;;0.50;99.90;;;;;;5054335;28;20233;-83
2022/04/03 05:43:54;;;;;;;4.63;3.17;;;0.60;99.90;;;;;;5037462;28;20288;-83
2022/04/03 05:46:22;;;;;;;4.33;2.67;;;0.50;99.90;;;;;;5036205;28;20211;-83
2022/04/03 05:48:49;;;;;;;5.90;2.83;;;0.60;99.90;;;;;;5034822;28;20209;-83
2022/04/03 05:51:16;;;;;;;4.67;2.87;;;0.60;99.90;;;;;;5035525;28;20239;-83
2022/04/03 05:53:43;;;;;;;3.77;2.90;;;0.60;99.90;;;;;;5033125;28;20220;-82
2022/04/03 05:56:11;;;;;;;4.40;2.73;;;0.60;99.90;;;;;;5034052;28;20260;-83
2022/04/03 05:58:38;;;;;;;5.97;3.20;;;0.60;99.90;;;;;;5034132;28;20229;-83
2022/04/03 06:01:05;;;;;;;6.53;3.03;;;0.60;99.90;;;;;;5028488;28;20262;-83
2022/04/03 06:03:33;;;;;;;7.83;3.63;;;0.50;99.90;;;;;;5035548;28;20207;-83
2022/04/03 06:06:00;;;;;;;4.87;3.13;;;0.60;99.90;;;;;;5030062;28;20719;-84
2022/04/03 06:08:27;;;;;;;6.77;3.80;;;0.70;99.90;;;;;;5027818;28;20215;-84
2022/04/03 06:10:54;;;;;;;9.57;3.63;;;0.60;99.90;;;;;;5029335;28;20287;-83
2022/04/03 06:13:22;;;;;;;5.47;3.23;;;0.80;99.90;;;;;;5029296;28;20308;-83
2022/04/03 06:15:49;;;;;;;3.83;2.87;;;0.90;99.90;;;;;;5031323;28;20200;-84
2022/04/03 06:18:18;;;;;;;5.10;3.00;;;0.90;99.90;;;;;;5027863;28;20198;-83
2022/04/03 06:20:47;;;;;;;3.87;3.03;;;0.90;99.90;;;;;;5024675;28;20201;-85
2022/04/03 06:23:19;;;;;;;5.40;3.50;;;0.80;99.90;;;;;;5028411;28;20768;-85
2022/04/03 06:25:48;;;;;;;5.73;3.43;;;0.80;99.90;;;;;;5046104;28;20700;-85
2022/04/03 06:28:15;;;;;;;5.00;3.13;;;0.70;99.90;;;;;;5029159;28;20234;-83
2022/04/03 06:30:42;;;;;;;5.27;3.93;;;0.70;99.90;;;;;;5028539;28;20521;-83
2022/04/03 06:33:09;;;;;;;5.33;3.47;;;0.90;99.90;;;;;;5027057;28;20237;-83
2022/04/03 06:35:36;;;;;;;4.63;3.30;;;1.00;99.90;;;;;;5044654;28;20200;-83
2022/04/03 06:38:10;;;;;;;5.27;3.70;;;1.10;99.90;;;;;;5023450;28;20214;-83
2022/04/03 06:40:37;;;;;;;6.03;3.27;;;1.20;99.90;;;;;;5028459;28;20232;-83
2022/04/03 06:43:04;;;;;;;6.63;3.73;;;1.30;99.90;;;;;;5027791;28;20197;-82
2022/04/03 06:45:31;;;;;;;6.73;3.90;;;1.40;99.90;;;;;;5045717;28;20637;-83
2022/04/03 06:48:03;;;;;;;4.53;3.90;;;1.60;99.90;;;;;;5027204;28;20239;-84
2022/04/03 06:50:31;;;;;;;6.37;4.37;;;1.90;99.90;;;;;;5028581;28;20290;-85
2022/04/03 06:52:58;;;;;;;7.30;4.30;;;2.10;99.90;;;;;;5027169;28;20255;-83
2022/04/03 06:55:25;;;;;;;6.13;4.47;;;2.30;99.90;;;;;;5044722;28;20255;-85
2022/04/03 06:57:52;;;;;;;5.67;4.60;;;2.50;99.90;;;;;;5025557;28;20240;-83
2022/04/03 07:00:19;;;;;;;4.97;4.43;;;2.50;99.90;;;;;;5026188;28;20328;-83
2022/04/03 07:02:45;;;;;;;6.33;4.50;;;2.60;99.90;;;;;;5029036;28;20204;-84
2022/04/03 07:05:12;;;;;;;5.30;4.60;;;2.70;99.90;;;;;;5026706;28;20213;-83
2022/04/03 07:07:39;;;;;;;6.03;4.13;;;3.00;99.90;;;;;;5023686;28;20559;-82
2022/04/03 07:10:07;;;;;;;5.87;4.40;;;3.10;99.90;;;;;;5025801;28;20212;-83
2022/04/03 07:12:35;;;;;;;4.97;4.47;;;3.10;99.90;;;;;;5028013;28;20278;-85
2022/04/03 07:15:05;;;;;;;7.30;4.97;;;3.30;99.90;;;;;;5027421;28;20295;-83
2022/04/03 07:17:32;;;;;;;5.87;4.63;;;3.40;99.90;;;;;;5044070;28;20662;-83
2022/04/03 07:20:02;;;;;;;7.83;4.50;;;3.50;99.90;;;;;;5023523;28;20330;-83
2022/04/03 07:22:29;;;;;;;5.23;4.13;;;3.80;99.90;;;;;;5033394;28;20224;-90
2022/04/03 07:24:55;;;;;;;4.57;3.87;;;4.30;99.90;;;;;;5029255;28;20227;-88
2022/04/03 07:27:22;;;;;;;4.63;3.87;;;4.40;99.90;;;;;;5028975;28;20274;-87
2022/04/03 07:29:49;;;;;;;8.67;4.30;;;4.60;99.90;;;;;;5045717;28;20218;-87
2022/04/03 07:32:16;;;;;;;4.30;3.73;;;4.60;99.90;;;;;;5030514;28;20299;-88
2022/04/03 07:34:43;;;;;;;5.90;4.10;;;4.80;99.90;;;;;;5030274;28;20224;-90
2022/04/03 07:37:10;;;;;;;6.33;3.50;;;4.70;99.90;;;;;;5029921;28;20232;-88
2022/04/03 07:39:37;;;;;;;5.53;3.60;;;4.70;99.90;;;;;;5047139;28;20192;-88
2022/04/03 07:42:04;;;;;;;5.43;3.50;;;4.80;99.90;;;;;;5030143;28;20234;-87
2022/04/03 07:44:30;;;;;;;5.57;3.67;;;5.20;99.90;;;;;;5013551;28;20241;-89
2022/04/03 07:46:57;;;;;;;4.50;3.80;;;5.20;99.90;;;;;;5029988;28;20203;-86
2022/04/03 07:49:24;;;;;;;5.37;3.83;;;5.10;99.90;;;;;;5024513;28;20326;-85
2022/04/03 07:51:51;;;;;;;4.87;3.90;;;5.10;99.90;;;;;;5029648;28;20211;-87
2022/04/03 07:54:18;;;;;;;7.80;3.87;;;5.40;99.90;;;;;;5025547;28;20252;-87
2022/04/03 07:56:45;;;;;;;5.57;3.90;;;5.40;99.90;;;;;;5044081;28;20245;-87
2022/04/03 07:59:12;;;;;;;5.40;3.80;;;5.70;99.90;;;;;;5025459;28;20209;-85
2022/04/03 08:01:39;;;;;;;4.37;3.07;;;5.70;99.90;;;;;;5027293;28;20211;-86
2022/04/03 08:04:06;;;;;;;6.73;4.13;;;5.60;99.90;;;;;;5021002;28;20226;-88
2022/04/03 08:06:33;;;;;;;7.57;4.33;;;6.20;99.90;;;;;;5028392;28;20329;-89
2022/04/03 08:09:00;;;;;;;5.43;3.87;;;6.40;99.90;;;;;;5028766;28;20670;-84
2022/04/03 08:11:27;;;;;;;8.63;3.60;;;6.40;99.90;;;;;;5026865;28;20215;-85
2022/04/03 08:13:54;;;;;;;4.73;3.43;;;6.60;99.90;;;;;;5026421;28;20653;-85
2022/04/03 08:16:21;;;;;;;3.17;2.70;;;7.00;99.90;;;;;;5026622;28;20229;-84
2022/04/03 08:18:48;;;;;;;3.33;3.00;;;7.00;99.90;;;;;;5043991;28;20238;-82
2022/04/03 08:21:15;;;;;;;4.27;2.53;;;7.50;99.90;;;;;;5020166;28;20203;-83
2022/04/03 08:23:43;;;;;;;3.63;2.13;;;7.40;99.90;;;;;;5042193;28;20287;-91
2022/04/03 08:26:11;;;;;;;3.73;2.57;;;7.20;99.90;;;;;;5023368;28;20236;-82
2022/04/03 08:28:38;;;;;;;4.10;1.80;;;7.70;99.90;;;;;;5023781;28;20289;-82
2022/04/03 08:31:05;;;;;;;4.87;2.30;;;7.50;99.90;;;;;;5020327;28;20313;-86
2022/04/03 08:33:34;;;;;;;2.70;1.80;;;7.70;99.90;;;;;;5041307;28;20192;-84
2022/04/03 08:36:03;;;;;;;1.67;1.40;;;8.40;99.90;;;;;;5041258;28;20196;-88
2022/04/03 08:38:30;;;;;;;3.80;1.50;;;7.90;99.90;;;;;;5024348;28;20754;-84
2022/04/03 08:41:01;;;;;;;2.00;1.30;;;8.60;99.90;;;;;;5041753;28;20257;-84
2022/04/03 08:43:31;;;;;;;4.17;1.47;;;8.30;99.90;;;;;;5022391;28;20207;-87
2022/04/03 08:45:58;;;;;;;2.87;1.47;;;8.20;99.90;;;;;;5036121;28;20200;-80
2022/04/03 08:48:30;;;;;;;2.77;1.30;;;8.30;99.90;;;;;;5019594;28;20841;-79
2022/04/03 08:51:03;;;;;;;1.23;1.00;;;9.10;99.90;;;;;;5019928;28;20205;-80
2022/04/03 08:53:35;;;;;;;2.83;1.43;;;9.70;99.90;;;;;;5023717;28;20242;-83
2022/04/03 08:56:03;;;;;;;2.37;1.50;;;9.80;99.90;;;;;;5039598;28;20238;-82
2022/04/03 08:58:30;;;;;;;2.30;1.23;;;10.70;99.90;;;;;;5023475;28;20288;-82
2022/04/03 09:00:57;;;;;;;3.00;1.40;;;10.10;99.90;;;;;;5006073;28;20237;-82
2022/04/03 09:03:24;;;;;;;5.23;1.10;;;9.80;99.90;;;;;;4985853;28;20256;-80
2022/04/03 09:05:51;;;;;;;2.37;1.00;;;9.80;99.90;;;;;;5000861;28;20414;-80
2022/04/03 09:08:36;;;;;;;2.70;0.90;;;8.90;99.90;;;;;;4977349;28;20676;-81
2022/04/03 09:11:07;;;;;;;1.83;1.00;;;10.00;99.90;;;;;;4979764;28;20272;-79
2022/04/03 09:13:36;;;;;;;0.93;0.83;;;10.60;99.90;;;;;;4967301;28;20217;-80
2022/04/03 09:16:04;;;;;;;1.53;1.10;;;11.00;99.90;;;;;;4977526;28;20256;-81
2022/04/03 09:18:46;;;;;;;1.90;0.90;;;12.00;99.90;;;;;;5006307;28;20714;-81
2022/04/03 09:21:24;;;;;;;6.07;0.80;;;12.40;99.90;;;;;;5000427;28;20295;-80
2022/04/03 09:24:12;;;;;;;1.37;0.93;;;11.70;99.90;;;;;;5004462;28;20541;-80
2022/04/03 09:26:41;;;;;;;2.33;0.80;;;10.70;99.90;;;;;;4984364;28;20207;-80
2022/04/03 09:29:16;;;;;;;3.17;1.10;;;10.90;99.90;;;;;;4985880;28;20207;-80
2022/04/03 09:31:45;;;;;;;1.33;0.80;;;12.10;99.90;;;;;;4986519;28;20201;-79
2022/04/03 09:34:18;;;;;;;2.87;0.90;;;11.70;99.90;;;;;;4985488;28;20289;-80
2022/04/03 09:36:59;;;;;;;1.83;0.90;;;11.00;99.90;;;;;;4989087;28;20203;-81
2022/04/03 09:39:28;;;;;;;1.73;1.10;;;10.50;99.90;;;;;;4991163;28;20202;-80
2022/04/03 09:41:58;;;;;;;2.00;1.20;;;10.20;99.90;;;;;;4978210;28;20660;-80
2022/04/03 09:44:37;;;;;;;1.13;1.03;;;10.20;99.90;;;;;;5012613;28;20205;-79
2022/04/03 09:47:10;;;;;;;1.97;1.10;;;11.10;99.90;;;;;;4989523;28;20225;-82
2022/04/03 09:49:40;;;;;;;3.17;1.13;;;11.70;99.90;;;;;;4991986;28;20226;-80
2022/04/03 09:52:07;;;;;;;1.67;1.17;;;10.20;99.90;;;;;;4995638;28;20268;-80
2022/04/03 09:54:34;;;;;;;1.67;1.23;;;10.90;99.90;;;;;;4973042;28;20963;-80
2022/04/03 09:57:21;;;;;;;2.63;1.20;;;11.10;99.90;;;;;;4970827;28;20300;-81
2022/04/03 09:59:53;;;;;;;1.97;1.20;;;11.30;99.90;;;;;;5003923;28;20305;-80
2022/04/03 10:02:23;;;;;;;2.50;1.20;;;11.10;99.90;;;;;;5006727;28;20548;-80
2022/04/03 10:04:51;;;;;;;2.77;1.20;;;11.20;99.90;;;;;;4984283;28;20213;-81
2022/04/03 10:07:20;;;;;;;3.53;1.07;;;9.50;99.90;;;;;;4984494;28;20734;-83
2022/04/03 10:09:52;;;;;;;1.70;0.97;;;9.50;99.90;;;;;;4979301;28;20215;-81
2022/04/03 10:12:22;;;;;;;1.70;1.27;;;9.10;99.90;;;;;;5000678;28;20211;-82
2022/04/03 10:14:51;;;;;;;3.30;1.20;;;9.50;99.90;;;;;;4983027;28;20242;-81
2022/04/03 10:17:20;;;;;;;1.40;0.80;;;9.60;99.90;;;;;;4981719;28;20728;-81
2022/04/03 10:19:48;;;;;;;2.97;0.93;;;9.50;99.90;;;;;;5004367;28;20616;-80
2022/04/03 10:22:30;;;;;;;2.23;0.90;;;9.00;99.90;;;;;;4981446;28;20268;-79
2022/04/03 10:24:59;;;;;;;3.73;0.90;;;9.10;99.90;;;;;;5004649;28;20621;-80
2022/04/03 10:27:33;;;;;;;2.97;0.90;;;9.50;99.90;;;;;;4985634;28;20209;-82
2022/04/03 10:30:00;;;;;;;0.90;0.77;;;9.40;99.90;;;;;;4985669;28;21165;-81
2022/04/03 10:32:33;;;;;;;4.37;0.80;;;9.40;99.90;;;;;;5003889;28;20276;-81
2022/04/03 10:35:08;;;;;;;2.23;0.80;;;9.40;99.90;;;;;;4986951;28;20322;-80
2022/04/03 10:37:41;;;;;;;3.97;1.00;;;9.30;99.90;;;;;;5001927;28;20285;-80
2022/04/03 10:40:15;;;;;;;3.30;0.90;;;9.80;99.90;;;;;;5004402;28;20210;-79
2022/04/03 10:43:01;;;;;;;1.70;0.83;;;9.60;99.90;;;;;;4983435;28;20296;-82
2022/04/03 10:45:35;;;;;;;1.50;0.70;;;9.40;99.90;;;;;;5002511;28;20203;-80
2022/04/03 10:48:20;;;;;;;1.30;1.20;;;9.50;99.90;;;;;;5001032;28;20228;-82
2022/04/03 10:50:56;;;;;;;1.53;1.07;;;9.30;99.90;;;;;;5001436;28;20197;-81
2022/04/03 10:53:25;;;;;;;5.23;1.47;;;9.30;99.90;;;;;;4980601;28;20209;-81
2022/04/03 10:55:56;;;;;;;2.77;1.23;;;9.30;99.90;;;;;;4980766;28;20544;-81
2022/04/03 10:58:23;;;;;;;2.93;1.13;;;9.30;99.90;;;;;;4998474;28;20202;-80
2022/04/03 11:00:51;;;;;;;1.57;0.90;;;9.30;99.90;;;;;;4981109;28;20659;-81
2022/04/03 11:03:20;;;;;;;1.30;0.80;;;9.10;99.90;;;;;;5005035;28;20302;-81
2022/04/03 11:05:48;;;;;;;1.73;1.10;;;9.40;99.90;;;;;;4998228;28;20204;-81
2022/04/03 11:08:17;;;;;;;2.70;0.97;;;9.40;99.90;;;;;;5004692;28;20717;-81
2022/04/03 11:10:52;;;;;;;2.63;0.80;;;9.50;99.90;;;;;;5003542;28;20215;-80
2022/04/03 11:13:22;;;;;;;3.47;1.17;;;9.60;99.90;;;;;;5018500;28;20205;-81
2022/04/03 11:15:51;;;;;;;3.37;0.70;;;9.70;99.90;;;;;;5005146;28;20239;-82
2022/04/03 11:18:39;;;;;;;1.77;0.70;;;9.10;99.90;;;;;;5012894;28;20295;-81
2022/04/03 11:21:11;;;;;;;1.23;1.13;;;8.80;99.90;;;;;;5003001;28;20225;-82
2022/04/03 11:23:55;;;;;;;3.73;1.03;;;8.80;99.90;;;;;;4998640;28;21210;-82
2022/04/03 11:26:23;;;;;;;1.43;0.90;;;9.00;99.90;;;;;;4999787;28;20209;-81
2022/04/03 11:28:59;;;;;;;2.30;0.80;;;9.10;99.90;;;;;;5023641;28;20251;-88
2022/04/03 11:31:27;;;;;;;1.77;1.03;;;9.00;99.90;;;;;;5007593;28;20211;-87
2022/04/03 11:33:54;;;;;;;2.20;1.23;;;8.90;99.90;;;;;;5010983;28;20337;-84
2022/04/03 11:36:31;;;;;;;3.53;1.10;;;8.40;99.90;;;;;;5004860;28;20684;-83
2022/04/03 11:39:00;;;;;;;1.53;1.20;;;8.30;99.90;;;;;;5004882;28;21274;-82
2022/04/03 11:41:34;;;;;;;2.47;1.10;;;8.10;99.90;;;;;;5006406;28;20205;-81
2022/04/03 11:44:07;;;;;;;3.13;1.70;;;8.20;99.90;;;;;;5022256;28;20243;-81
2022/04/03 11:46:48;;;;;;;1.70;1.30;;;8.60;99.90;;;;;;5021252;28;20229;-81
2022/04/03 11:49:21;;;;;;;2.70;1.30;;;8.90;99.90;;;;;;5001041;28;20204;-81
2022/04/03 11:51:54;;;;;;;2.43;1.43;;;9.60;99.90;;;;;;5020279;28;20620;-82
2022/04/03 11:54:21;;;;;;;1.87;1.00;;;9.90;99.90;;;;;;5002927;28;20255;-82
2022/04/03 11:56:48;;;;;;;2.90;1.20;;;10.40;99.90;;;;;;5009386;28;20235;-81
2022/04/03 11:59:15;;;;;;;2.50;1.03;;;10.80;99.90;;;;;;5002419;28;20270;-83
2022/04/03 12:01:50;;;;;;;2.53;1.10;;;10.90;99.90;;;;;;5007511;28;20246;-82
2022/04/03 12:04:19;;;;;;;0.90;0.70;;;11.20;99.90;;;;;;5025923;28;20209;-82
2022/04/03 12:06:48;;;;;;;1.20;0.60;;;11.20;99.90;;;;;;5025067;28;20228;-81
2022/04/03 12:09:18;;;;;;;2.63;0.80;;;12.10;99.90;;;;;;5013238;28;20201;-82
2022/04/03 12:11:50;;;;;;;3.77;0.87;;;12.20;99.90;;;;;;5005231;28;20305;-81
2022/04/03 12:14:22;;;;;;;9.33;1.20;;;11.30;99.90;;;;;;5007321;28;20222;-81
2022/04/03 12:16:58;;;;;;;1.33;0.83;;;11.50;99.90;;;;;;5006687;28;20211;-82
2022/04/03 12:19:27;;;;;;;2.07;0.73;;;11.60;99.90;;;;;;5005614;28;20274;-83
2022/04/03 12:22:00;;;;;;;3.37;1.10;;;11.90;99.90;;;;;;5023314;28;20473;-82
2022/04/03 12:24:28;;;;;;;0.97;0.87;;;12.00;99.90;;;;;;5026809;28;20222;-81
2022/04/03 12:27:01;;;;;;;1.03;0.77;;;11.80;99.90;;;;;;5010463;28;20221;-82
2022/04/03 12:29:30;;;;;;;1.43;0.63;;;11.80;99.90;;;;;;5004307;28;20211;-81
2022/04/03 12:32:02;;;;;;;2.10;0.67;;;11.10;99.90;;;;;;5006537;28;20819;-84
2022/04/03 12:34:31;;;;;;;1.73;0.60;;;10.70;99.90;;;;;;5002876;28;20214;-83
2022/04/03 12:37:01;;;;;;;3.03;0.70;;;10.90;99.90;;;;;;5008741;28;20224;-82
2022/04/03 12:39:31;;;;;;;3.23;0.80;;;10.70;99.90;;;;;;5024676;28;20211;-81
2022/04/03 12:42:20;;;;;;;1.20;0.70;;;10.80;99.90;;;;;;5004321;28;20207;-84
2022/04/03 12:44:59;;;;;;;1.80;0.80;;;10.70;99.90;;;;;;5025091;28;20234;-84
2022/04/03 12:47:29;;;;;;;1.20;0.70;;;10.60;99.90;;;;;;5003058;28;20200;-83
2022/04/03 12:50:05;;;;;;;1.07;0.67;;;10.50;99.90;;;;;;5002356;28;20335;-83
2022/04/03 12:52:47;;;;;;;2.20;0.67;;;10.20;99.90;;;;;;5017700;28;20225;-83
2022/04/03 12:55:23;;;;;;;0.60;0.60;;;10.00;99.90;;;;;;5003361;28;20256;-82
2022/04/03 13:01:14;;;;;;;1.40;0.80;;;9.60;99.90;;;;;;5027908;28;20322;-80
2022/04/03 13:03:46;;;;;;;1.43;0.77;;;9.20;99.90;;;;;;5002525;28;20208;-85
2022/04/03 13:06:28;;;;;;;0.80;0.80;;;9.00;99.90;;;;;;5009383;28;20678;-83
2022/04/03 13:08:58;;;;;;;1.07;0.97;;;8.90;99.90;;;;;;5030915;28;20258;-81